Time;durP1;ratioP1;P1;durP2;ratioP2;P2;SDS_P1;SDS_P2;PMS_P1;PMS_P2;Temp;Humidity;BMP_temperature;BMP_pressure;BME280_temperature;BME280_humidity;BME280_pressure;Samples;Min_cycle;Max_cycle;Signal;HPM_P1;HPM_P2
2021/11/29 00:01:13;;;;;;;10.30;7.90;;;;;;;2.06;nan;98992.22;4997493;28;20046;-84
2021/11/29 00:03:38;;;;;;;11.13;8.23;;;;;;;1.97;nan;99000.84;4980556;28;20034;-84
2021/11/29 00:06:04;;;;;;;12.43;9.07;;;;;;;1.83;nan;98999.44;5000086;28;20041;-84
2021/11/29 00:08:30;;;;;;;12.00;8.45;;;;;;;1.74;nan;98996.81;5000925;28;20042;-84
2021/11/29 00:10:55;;;;;;;11.05;7.85;;;;;;;1.71;nan;99003.13;5002709;28;20038;-85
2021/11/29 00:13:21;;;;;;;9.25;6.72;;;;;;;1.70;nan;98996.28;5001683;28;20403;-85
2021/11/29 00:15:47;;;;;;;12.00;8.60;;;;;;;1.74;nan;98995.06;5002572;28;20043;-85
2021/11/29 00:18:12;;;;;;;14.65;9.63;;;;;;;1.71;nan;98995.31;4981160;28;20038;-84
2021/11/29 00:20:37;;;;;;;12.10;8.35;;;;;;;1.69;nan;98992.00;4997340;28;20037;-84
2021/11/29 00:23:03;;;;;;;12.85;8.82;;;;;;;1.60;nan;98996.25;4996561;28;20045;-84
2021/11/29 00:25:29;;;;;;;15.75;10.18;;;;;;;1.43;nan;99005.50;4976979;28;20085;-84
2021/11/29 00:27:54;;;;;;;13.20;9.48;;;;;;;1.31;nan;99014.38;4996277;28;20117;-84
2021/11/29 00:30:20;;;;;;;12.95;9.45;;;;;;;1.20;nan;99023.06;4976786;28;20117;-84
2021/11/29 00:32:46;;;;;;;11.85;8.52;;;;;;;1.16;nan;99028.66;4975841;28;20030;-84
2021/11/29 00:35:11;;;;;;;11.60;8.25;;;;;;;1.16;nan;99028.66;4995165;28;20045;-84
2021/11/29 00:37:38;;;;;;;12.00;8.27;;;;;;;1.18;nan;99032.78;4997749;28;20532;-85
2021/11/29 00:40:06;;;;;;;12.75;9.07;;;;;;;1.17;nan;99036.38;4998392;28;20038;-85
2021/11/29 00:42:33;;;;;;;11.93;8.60;;;;;;;1.23;nan;99040.22;5012047;28;20039;-84
2021/11/29 00:44:59;;;;;;;12.68;8.75;;;;;;;1.31;nan;99048.22;4999191;28;20045;-85
2021/11/29 00:47:24;;;;;;;11.68;8.40;;;;;;;1.39;nan;99045.78;5004513;28;20030;-85
2021/11/29 00:49:49;;;;;;;14.73;9.18;;;;;;;1.49;nan;99054.47;4979333;28;20077;-84
2021/11/29 00:52:15;;;;;;;13.35;8.75;;;;;;;1.46;nan;99048.72;4981785;28;20436;-84
2021/11/29 00:54:40;;;;;;;10.23;7.50;;;;;;;1.55;nan;99055.75;4998258;28;20034;-85
2021/11/29 00:57:05;;;;;;;11.00;7.93;;;;;;;1.58;nan;99055.47;4978998;28;20084;-85
2021/11/29 00:59:31;;;;;;;10.93;8.50;;;;;;;1.55;nan;99060.09;4977918;28;20211;-85
2021/11/29 01:01:56;;;;;;;11.82;8.35;;;;;;;1.56;nan;99062.59;4998058;28;20038;-85
2021/11/29 01:04:21;;;;;;;11.57;8.15;;;;;;;1.58;nan;99062.47;4990489;28;20049;-85
2021/11/29 01:06:47;;;;;;;12.20;9.10;;;;;;;1.56;nan;99064.38;4997071;28;20058;-85
2021/11/29 01:09:12;;;;;;;11.82;8.85;;;;;;;1.60;nan;99064.00;4979272;28;20038;-84
2021/11/29 01:11:38;;;;;;;12.05;8.70;;;;;;;1.69;nan;99078.00;4981605;28;20117;-85
2021/11/29 01:14:03;;;;;;;11.10;8.25;;;;;;;1.68;nan;99071.97;4997354;28;20127;-85
2021/11/29 01:16:29;;;;;;;11.20;8.10;;;;;;;1.74;nan;99075.00;4977755;28;20042;-85
2021/11/29 01:18:54;;;;;;;12.82;9.00;;;;;;;1.76;nan;99079.13;5013447;28;20038;-85
2021/11/29 01:21:20;;;;;;;11.05;7.82;;;;;;;1.76;nan;99075.69;4999465;28;20057;-84
2021/11/29 01:23:45;;;;;;;11.88;8.80;;;;;;;1.73;nan;99082.00;4981117;28;20057;-85
2021/11/29 01:26:11;;;;;;;14.00;9.60;;;;;;;1.74;nan;99090.63;4979456;28;20476;-85
2021/11/29 01:28:37;;;;;;;10.35;7.68;;;;;;;1.74;nan;99086.28;5014690;28;20074;-85
2021/11/29 01:31:02;;;;;;;10.43;7.35;;;;;;;1.78;nan;99090.25;4996849;28;20124;-85
2021/11/29 01:33:28;;;;;;;10.73;7.20;;;;;;;1.80;nan;99092.72;5011606;28;20045;-85
2021/11/29 01:35:53;;;;;;;12.52;8.82;;;;;;;1.83;nan;99090.66;4979671;28;20042;-85
2021/11/29 01:38:19;;;;;;;13.23;9.70;;;;;;;1.78;nan;99097.25;4999077;28;20427;-85
2021/11/29 01:40:44;;;;;;;13.02;8.95;;;;;;;1.81;nan;99097.81;4999371;28;21598;-85
2021/11/29 01:43:13;;;;;;;12.25;8.30;;;;;;;1.84;nan;99096.72;5001451;28;20022;-85
2021/11/29 01:45:41;;;;;;;13.13;9.13;;;;;;;1.89;nan;99092.75;4997862;28;20042;-84
2021/11/29 01:48:08;;;;;;;10.38;7.82;;;;;;;1.88;nan;99096.34;4996262;28;20090;-84
2021/11/29 01:50:35;;;;;;;13.30;9.38;;;;;;;1.93;nan;99095.91;4997831;28;20045;-85
2021/11/29 01:53:01;;;;;;;12.77;9.25;;;;;;;1.92;nan;99096.88;4991891;28;20076;-85
2021/11/29 01:55:26;;;;;;;12.80;8.63;;;;;;;1.95;nan;99099.22;4986370;28;20070;-84
2021/11/29 01:57:52;;;;;;;11.75;8.65;;;;;;;1.90;nan;99107.44;5008550;28;20042;-85
2021/11/29 02:00:22;;;;;;;11.98;8.70;;;;;;;1.95;nan;99104.44;4981339;28;20038;-85
2021/11/29 02:02:50;;;;;;;12.40;8.68;;;;;;;1.92;nan;99104.72;4998063;28;20508;-85
2021/11/29 02:05:16;;;;;;;12.45;9.05;;;;;;;1.95;nan;99095.78;4998600;28;20042;-84
2021/11/29 02:07:42;;;;;;;15.02;10.18;;;;;;;1.90;nan;99111.81;5014446;28;20181;-85
2021/11/29 02:10:08;;;;;;;14.75;10.77;;;;;;;1.86;nan;99107.81;4994941;28;20397;-84
2021/11/29 02:12:33;;;;;;;15.65;10.68;;;;;;;1.86;nan;99108.69;4999747;28;20094;-85
2021/11/29 02:14:59;;;;;;;15.30;10.57;;;;;;;1.91;nan;99114.31;4996719;28;20054;-85
2021/11/29 02:17:24;;;;;;;18.45;11.10;;;;;;;1.94;nan;99117.63;5011551;28;20105;-85
2021/11/29 02:19:51;;;;;;;14.00;9.68;;;;;;;1.94;nan;99120.22;5002763;28;20035;-85
2021/11/29 02:22:16;;;;;;;18.20;12.48;;;;;;;1.92;nan;99115.94;4983582;28;20038;-85
2021/11/29 02:24:43;;;;;;;18.27;12.45;;;;;;;1.88;nan;99117.19;4990172;28;20519;-85
2021/11/29 02:27:09;;;;;;;21.48;14.50;;;;;;;1.87;nan;99120.75;4984375;28;20097;-85
2021/11/29 02:29:35;;;;;;;21.25;14.27;;;;;;;1.81;nan;99121.28;5001426;28;20118;-84
2021/11/29 02:32:01;;;;;;;21.20;12.77;;;;;;;1.81;nan;99118.66;5016347;28;20038;-85
2021/11/29 02:34:29;;;;;;;25.67;15.45;;;;;;;1.86;nan;99121.72;4988870;28;20066;-85
2021/11/29 02:36:57;;;;;;;22.30;14.25;;;;;;;1.85;nan;99127.03;5021988;28;20042;-85
2021/11/29 02:39:23;;;;;;;21.85;13.77;;;;;;;1.87;nan;99133.78;4989944;28;20027;-84
2021/11/29 02:41:51;;;;;;;22.25;14.90;;;;;;;1.87;nan;99132.94;5002204;28;20100;-85
2021/11/29 02:44:17;;;;;;;22.33;13.55;;;;;;;1.86;nan;99139.94;5019721;28;20042;-85
2021/11/29 02:46:43;;;;;;;23.92;14.80;;;;;;;1.88;nan;99140.66;5000672;28;20038;-85
2021/11/29 02:49:10;;;;;;;21.05;13.25;;;;;;;1.86;nan;99136.50;5019975;28;20099;-84
2021/11/29 02:51:39;;;;;;;25.73;15.38;;;;;;;1.85;nan;99145.28;4999846;28;20044;-84
2021/11/29 02:54:11;;;;;;;21.95;13.77;;;;;;;1.87;nan;99143.38;4993212;28;20045;-85
2021/11/29 02:56:38;;;;;;;18.50;11.82;;;;;;;1.86;nan;99152.13;5000554;28;20197;-84
2021/11/29 02:59:10;;;;;;;20.17;12.55;;;;;;;1.88;nan;99150.22;5000845;28;20041;-84
2021/11/29 03:01:40;;;;;;;22.23;14.30;;;;;;;1.89;nan;99163.16;5002123;28;20581;-85
2021/11/29 03:04:05;;;;;;;25.40;15.48;;;;;;;1.88;nan;99164.09;4999487;28;20038;-85
2021/11/29 03:06:31;;;;;;;24.77;15.55;;;;;;;1.88;nan;99171.09;4989448;28;20098;-84
2021/11/29 03:08:56;;;;;;;24.40;13.65;;;;;;;1.92;nan;99172.47;5000089;28;20044;-85
2021/11/29 03:11:21;;;;;;;23.40;14.38;;;;;;;1.90;nan;99177.00;5001722;28;20060;-85
2021/11/29 03:13:47;;;;;;;22.17;13.93;;;;;;;1.97;nan;99172.09;5003249;28;20046;-84
2021/11/29 03:16:13;;;;;;;24.52;14.57;;;;;;;1.90;nan;99172.59;4981662;28;20098;-85
2021/11/29 03:18:41;;;;;;;25.70;15.52;;;;;;;1.86;nan;99180.81;5010868;28;20060;-85
2021/11/29 03:21:08;;;;;;;24.63;15.45;;;;;;;1.84;nan;99180.94;4981537;28;20027;-84
2021/11/29 03:23:34;;;;;;;24.85;14.73;;;;;;;1.88;nan;99184.13;4991490;28;20048;-84
2021/11/29 03:26:04;;;;;;;27.77;16.65;;;;;;;1.81;nan;99185.59;5007859;28;20439;-85
2021/11/29 03:28:30;;;;;;;23.23;14.52;;;;;;;1.77;nan;99182.44;4992963;28;20040;-84
2021/11/29 03:30:55;;;;;;;24.58;14.82;;;;;;;1.73;nan;99186.22;4981838;28;20050;-85
2021/11/29 03:33:20;;;;;;;27.80;16.08;;;;;;;1.69;nan;99190.03;4985915;28;20030;-85
2021/11/29 03:35:46;;;;;;;27.17;16.77;;;;;;;1.66;nan;99193.72;5002246;28;20130;-85
2021/11/29 03:38:11;;;;;;;23.77;14.60;;;;;;;1.67;nan;99194.59;4982055;28;20054;-85
2021/11/29 03:40:38;;;;;;;25.33;14.95;;;;;;;1.67;nan;99192.78;4989176;28;20034;-85
2021/11/29 03:43:04;;;;;;;25.02;15.75;;;;;;;1.60;nan;99202.06;5001238;28;20515;-85
2021/11/29 03:45:30;;;;;;;25.42;15.90;;;;;;;1.53;nan;99202.72;4986280;28;20065;-85
2021/11/29 03:47:55;;;;;;;25.92;15.90;;;;;;;1.49;nan;99204.72;4983006;28;20673;-85
2021/11/29 03:50:21;;;;;;;24.48;15.20;;;;;;;1.52;nan;99208.84;5001272;28;20050;-85
2021/11/29 03:52:46;;;;;;;25.98;16.15;;;;;;;1.45;nan;99217.19;5017349;28;20054;-85
2021/11/29 03:55:11;;;;;;;23.42;14.70;;;;;;;1.43;nan;99216.50;4980069;28;20554;-84
2021/11/29 03:57:36;;;;;;;22.88;13.85;;;;;;;1.48;nan;99222.16;4979908;28;20097;-85
2021/11/29 04:00:04;;;;;;;30.77;16.85;;;;;;;1.58;nan;99224.00;5001621;28;20089;-84
2021/11/29 04:02:29;;;;;;;23.60;14.32;;;;;;;1.53;nan;99226.16;4999809;28;20049;-85
2021/11/29 04:04:55;;;;;;;26.70;15.68;;;;;;;1.47;nan;99222.25;4980648;28;20031;-85
2021/11/29 04:07:21;;;;;;;25.25;14.52;;;;;;;1.39;nan;99222.91;4981620;28;20038;-85
2021/11/29 04:09:46;;;;;;;24.38;14.60;;;;;;;1.34;nan;99225.06;4992084;28;20035;-85
2021/11/29 04:12:12;;;;;;;22.73;13.45;;;;;;;1.32;nan;99239.16;5000414;28;20061;-85
2021/11/29 04:14:37;;;;;;;22.08;13.25;;;;;;;1.28;nan;99222.94;4998905;28;20082;-85
2021/11/29 04:17:03;;;;;;;25.25;15.43;;;;;;;1.21;nan;99230.41;4983463;28;20034;-84
2021/11/29 04:19:28;;;;;;;23.58;14.10;;;;;;;1.12;nan;99246.78;5001427;28;20758;-85
2021/11/29 04:21:54;;;;;;;27.25;15.82;;;;;;;1.03;nan;99250.94;4984400;28;20035;-85
2021/11/29 04:24:20;;;;;;;22.95;14.23;;;;;;;1.02;nan;99256.28;4980581;28;20488;-86
2021/11/29 04:26:51;;;;;;;19.88;12.85;;;;;;;1.03;nan;99256.16;4999080;28;20404;-86
2021/11/29 04:29:19;;;;;;;29.90;17.02;;;;;;;1.12;nan;99266.78;4995154;28;20038;-85
2021/11/29 04:31:46;;;;;;;25.65;15.45;;;;;;;1.05;nan;99263.84;4979024;28;20752;-85
2021/11/29 04:34:11;;;;;;;29.05;16.40;;;;;;;1.16;nan;99266.41;4979170;28;20193;-86
2021/11/29 04:36:37;;;;;;;29.88;17.13;;;;;;;1.18;nan;99263.69;4997770;28;20293;-85
2021/11/29 04:39:02;;;;;;;30.05;16.67;;;;;;;1.17;nan;99269.84;4979517;28;20238;-86
2021/11/29 04:41:27;;;;;;;28.35;16.33;;;;;;;1.17;nan;99277.66;4980516;28;20077;-86
2021/11/29 04:43:53;;;;;;;25.40;14.68;;;;;;;1.08;nan;99270.59;4996578;28;20034;-85
2021/11/29 04:46:18;;;;;;;24.40;14.43;;;;;;;1.04;nan;99273.41;4996659;28;20116;-86
2021/11/29 04:48:44;;;;;;;22.85;14.25;;;;;;;0.99;nan;99279.94;4998392;28;20061;-86
2021/11/29 04:51:09;;;;;;;27.52;14.70;;;;;;;0.89;nan;99281.63;4980000;28;20042;-86
2021/11/29 04:53:35;;;;;;;24.88;15.13;;;;;;;0.75;nan;99287.91;5013334;28;20030;-86
2021/11/29 04:56:01;;;;;;;25.25;14.07;;;;;;;0.66;nan;99289.44;4993880;28;20100;-85
2021/11/29 04:58:26;;;;;;;22.38;13.07;;;;;;;0.64;nan;99291.34;4977762;28;20035;-86
2021/11/29 05:00:52;;;;;;;24.02;14.45;;;;;;;0.56;nan;99291.94;4977957;28;20081;-86
2021/11/29 05:03:19;;;;;;;22.25;13.02;;;;;;;0.53;nan;99294.78;5011568;28;20385;-85
2021/11/29 05:05:45;;;;;;;25.35;14.57;;;;;;;0.49;nan;99303.75;4995010;28;20065;-85
2021/11/29 05:08:10;;;;;;;21.27;12.60;;;;;;;0.48;nan;99299.50;4977139;28;20034;-85
2021/11/29 05:10:36;;;;;;;24.75;13.80;;;;;;;0.49;nan;99302.94;5019021;28;20034;-85
2021/11/29 05:13:01;;;;;;;22.92;13.38;;;;;;;0.46;nan;99310.97;4983244;28;20120;-85
2021/11/29 05:15:26;;;;;;;24.42;13.20;;;;;;;0.53;nan;99317.38;4981204;28;20103;-85
2021/11/29 05:17:52;;;;;;;21.60;12.60;;;;;;;0.53;nan;99318.19;4980621;28;20102;-85
2021/11/29 05:20:17;;;;;;;21.23;12.40;;;;;;;0.56;nan;99317.13;4997975;28;20122;-85
2021/11/29 05:22:42;;;;;;;21.27;11.82;;;;;;;0.61;nan;99328.00;5007037;28;20038;-86
2021/11/29 05:25:08;;;;;;;21.65;12.32;;;;;;;0.60;nan;99334.16;4982780;28;20129;-85
2021/11/29 05:27:33;;;;;;;21.40;12.15;;;;;;;0.68;nan;99341.38;4986105;28;20092;-86
2021/11/29 05:29:59;;;;;;;24.52;13.43;;;;;;;0.69;nan;99336.06;4982582;28;20039;-85
2021/11/29 05:32:27;;;;;;;20.92;11.95;;;;;;;0.70;nan;99345.50;4979444;28;20046;-86
2021/11/29 05:34:52;;;;;;;25.48;13.38;;;;;;;0.68;nan;99342.19;4993513;28;20034;-85
2021/11/29 05:37:18;;;;;;;21.67;12.48;;;;;;;0.69;nan;99346.47;5009623;28;20414;-85
2021/11/29 05:39:43;;;;;;;25.30;14.07;;;;;;;0.70;nan;99350.69;4999678;28;20043;-86
2021/11/29 05:42:09;;;;;;;25.30;14.00;;;;;;;0.65;nan;99357.22;4998481;28;20038;-86
2021/11/29 05:44:34;;;;;;;21.55;12.90;;;;;;;0.62;nan;99358.25;4997007;28;20057;-85
2021/11/29 05:47:00;;;;;;;21.05;12.20;;;;;;;0.60;nan;99360.16;4993870;28;20038;-85
2021/11/29 05:49:29;;;;;;;20.83;13.23;;;;;;;0.60;nan;99365.38;4993802;28;20035;-86
2021/11/29 05:51:55;;;;;;;20.88;12.68;;;;;;;0.55;nan;99367.47;4975283;28;20030;-85
2021/11/29 05:54:21;;;;;;;21.88;13.05;;;;;;;0.54;nan;99369.25;4975201;28;20038;-85
2021/11/29 05:56:46;;;;;;;22.08;12.48;;;;;;;0.51;nan;99366.88;4984209;28;20439;-85
2021/11/29 05:59:12;;;;;;;21.92;12.35;;;;;;;0.49;nan;99384.38;4976247;28;20073;-86
2021/11/29 06:01:37;;;;;;;21.08;11.95;;;;;;;0.46;nan;99382.00;4976741;28;20053;-85
2021/11/29 06:04:03;;;;;;;23.20;13.57;;;;;;;0.43;nan;99390.06;4976911;28;20412;-85
2021/11/29 06:06:28;;;;;;;21.90;12.02;;;;;;;0.35;nan;99402.78;4977189;28;20117;-85
2021/11/29 06:08:53;;;;;;;20.63;11.75;;;;;;;0.31;nan;99393.53;4993995;28;20161;-85
2021/11/29 06:11:19;;;;;;;17.95;12.13;;;;;;;0.26;nan;99401.69;4977423;28;20041;-85
2021/11/29 06:13:44;;;;;;;20.92;12.80;;;;;;;0.20;nan;99402.16;4993938;28;20030;-85
2021/11/29 06:16:10;;;;;;;24.67;14.63;;;;;;;0.10;nan;99404.59;4976810;28;20046;-85
2021/11/29 06:18:35;;;;;;;26.83;15.80;;;;;;;0.03;nan;99407.78;4998070;28;20034;-85
2021/11/29 06:21:00;;;;;;;28.23;16.77;;;;;;;-0.03;nan;99404.66;4980818;28;20042;-85
2021/11/29 06:23:26;;;;;;;28.40;17.13;;;;;;;-0.09;nan;99419.88;4983965;28;20038;-85
2021/11/29 06:25:52;;;;;;;28.38;16.15;;;;;;;-0.19;nan;99421.47;4989564;28;20045;-85
2021/11/29 06:28:17;;;;;;;27.63;14.43;;;;;;;-0.13;nan;99429.66;4982074;28;20047;-86
2021/11/29 06:30:42;;;;;;;23.88;14.18;;;;;;;-0.12;nan;99431.34;4987801;28;20040;-85
2021/11/29 06:33:08;;;;;;;23.45;13.50;;;;;;;-0.12;nan;99435.69;4985735;28;20038;-85
2021/11/29 06:35:33;;;;;;;20.83;11.90;;;;;;;-0.08;nan;99434.53;5014937;28;20030;-84
2021/11/29 06:38:03;;;;;;;21.13;11.93;;;;;;;-0.08;nan;99452.72;4986391;28;20109;-85
2021/11/29 06:40:29;;;;;;;18.17;11.50;;;;;;;-0.08;nan;99443.16;5013323;28;20030;-85
2021/11/29 06:42:55;;;;;;;18.60;11.13;;;;;;;-0.08;nan;99442.31;4989747;28;20289;-85
2021/11/29 06:45:21;;;;;;;19.70;10.52;;;;;;;-0.10;nan;99455.41;4988636;28;20037;-85
2021/11/29 06:47:47;;;;;;;17.02;10.52;;;;;;;-0.17;nan;99462.00;5008186;28;20027;-84
2021/11/29 06:50:13;;;;;;;17.73;11.00;;;;;;;-0.20;nan;99454.44;4980756;28;20034;-85
2021/11/29 06:52:39;;;;;;;17.35;11.05;;;;;;;-0.14;nan;99459.19;5015390;28;20112;-85
2021/11/29 06:55:05;;;;;;;20.65;10.95;;;;;;;-0.17;nan;99469.78;4979967;28;20054;-85
2021/11/29 06:57:31;;;;;;;17.20;10.63;;;;;;;-0.16;nan;99473.22;4980700;28;20038;-84
2021/11/29 06:59:56;;;;;;;17.35;10.95;;;;;;;-0.23;nan;99473.66;4984055;28;20038;-85
2021/11/29 07:02:26;;;;;;;19.65;11.57;;;;;;;-0.31;nan;99481.19;4990281;28;20038;-85
2021/11/29 07:04:53;;;;;;;18.73;11.18;;;;;;;-0.35;nan;99482.31;5019980;28;20035;-85
2021/11/29 07:07:18;;;;;;;19.15;11.98;;;;;;;-0.37;nan;99478.19;4987605;28;20042;-84
2021/11/29 07:09:44;;;;;;;19.45;11.10;;;;;;;-0.43;nan;99485.47;4999712;28;20041;-85
2021/11/29 07:12:09;;;;;;;21.08;11.57;;;;;;;-0.40;nan;99494.81;5001643;28;20053;-84
2021/11/29 07:14:36;;;;;;;16.58;9.77;;;;;;;-0.44;nan;99506.34;4990662;28;20034;-84
2021/11/29 07:17:02;;;;;;;18.50;10.63;;;;;;;-0.45;nan;99500.31;4992105;28;20084;-84
2021/11/29 07:19:28;;;;;;;20.52;11.52;;;;;;;-0.32;nan;99513.28;4989213;28;20042;-84
2021/11/29 07:21:55;;;;;;;22.88;11.85;;;;;;;-0.32;nan;99522.84;4978014;28;20479;-84
2021/11/29 07:24:20;;;;;;;20.58;11.88;;;;;;;-0.42;nan;99517.44;4978767;28;20040;-84
2021/11/29 07:26:45;;;;;;;20.92;12.68;;;;;;;-0.41;nan;99513.09;4995868;28;20464;-84
2021/11/29 07:29:14;;;;;;;18.02;11.90;;;;;;;-0.34;nan;99532.50;4978446;28;20538;-84
2021/11/29 07:31:40;;;;;;;19.70;12.70;;;;;;;-0.41;nan;99534.69;4978370;28;20105;-84
2021/11/29 07:34:05;;;;;;;20.85;12.65;;;;;;;-0.44;nan;99534.91;5009867;28;20042;-85
2021/11/29 07:36:31;;;;;;;22.23;12.32;;;;;;;-0.40;nan;99541.56;5017697;28;20104;-84
2021/11/29 07:38:56;;;;;;;17.95;11.18;;;;;;;-0.30;nan;99539.97;4978232;28;20033;-85
2021/11/29 07:41:22;;;;;;;17.77;11.13;;;;;;;-0.25;nan;99540.47;4983238;28;20033;-84
2021/11/29 07:43:48;;;;;;;17.25;11.50;;;;;;;-0.24;nan;99549.94;4998034;28;20039;-85
2021/11/29 07:46:13;;;;;;;22.98;13.60;;;;;;;-0.17;nan;99552.09;4983518;28;20034;-85
2021/11/29 07:48:39;;;;;;;21.25;12.45;;;;;;;-0.17;nan;99547.72;4997279;28;20034;-85
2021/11/29 07:51:05;;;;;;;21.30;12.13;;;;;;;-0.07;nan;99555.72;5004503;28;20086;-85
2021/11/29 07:53:30;;;;;;;18.80;12.18;;;;;;;-0.05;nan;99559.03;5021012;28;20053;-84
2021/11/29 07:55:56;;;;;;;17.48;11.18;;;;;;;-0.02;nan;99574.44;4986000;28;20041;-85
2021/11/29 07:58:21;;;;;;;19.80;11.35;;;;;;;-0.02;nan;99569.22;5020161;28;20551;-84
2021/11/29 08:00:48;;;;;;;18.45;10.63;;;;;;;0.07;nan;99576.38;5015357;28;20042;-85
2021/11/29 08:03:14;;;;;;;18.90;11.38;;;;;;;0.16;nan;99574.88;4984528;28;20035;-85
2021/11/29 08:05:40;;;;;;;21.35;12.15;;;;;;;0.21;nan;99588.38;4995340;28;20041;-85
2021/11/29 08:08:07;;;;;;;19.77;11.93;;;;;;;0.25;nan;99587.22;5022095;28;20034;-85
2021/11/29 08:10:34;;;;;;;25.33;12.30;;;;;;;0.22;nan;99589.25;5011259;28;20041;-85
2021/11/29 08:13:01;;;;;;;17.70;11.15;;;;;;;0.33;nan;99581.47;5005857;28;20117;-84
2021/11/29 08:15:27;;;;;;;21.20;11.63;;;;;;;0.41;nan;99580.00;5001632;28;20035;-84
2021/11/29 08:17:52;;;;;;;17.13;10.65;;;;;;;0.48;nan;99598.59;4981845;28;20042;-85
2021/11/29 08:20:24;;;;;;;18.83;11.45;;;;;;;0.52;nan;99599.19;5006460;28;20037;-85
2021/11/29 08:22:49;;;;;;;23.10;12.13;;;;;;;0.68;nan;99593.72;5005779;28;20038;-84
2021/11/29 08:25:15;;;;;;;21.73;12.32;;;;;;;0.86;nan;99602.78;4985956;28;20448;-85
2021/11/29 08:27:41;;;;;;;22.25;12.63;;;;;;;1.12;nan;99605.22;5002199;28;20427;-85
2021/11/29 08:30:10;;;;;;;19.88;11.65;;;;;;;1.31;nan;99605.53;4986055;28;20057;-86
2021/11/29 08:32:37;;;;;;;20.02;12.05;;;;;;;1.53;nan;99603.91;4989229;28;20034;-85
2021/11/29 08:35:03;;;;;;;24.48;14.20;;;;;;;1.71;nan;99602.50;5017532;28;20038;-85
2021/11/29 08:37:28;;;;;;;20.55;12.20;;;;;;;1.83;nan;99606.75;4999853;28;20054;-84
2021/11/29 08:39:54;;;;;;;21.50;12.05;;;;;;;1.89;nan;99605.47;5009021;28;20089;-85
2021/11/29 08:42:19;;;;;;;18.77;12.15;;;;;;;1.88;nan;99606.41;4981800;28;20034;-84
2021/11/29 08:44:44;;;;;;;20.70;13.02;;;;;;;1.97;nan;99612.69;4985555;28;20404;-84
2021/11/29 08:47:10;;;;;;;20.05;11.38;;;;;;;1.95;nan;99614.56;4999015;28;20034;-85
2021/11/29 08:49:35;;;;;;;19.73;11.02;;;;;;;1.96;nan;99617.06;4983472;28;20034;-86
2021/11/29 08:52:01;;;;;;;19.95;12.60;;;;;;;1.99;nan;99621.22;5001611;28;20661;-84
2021/11/29 08:54:26;;;;;;;17.60;10.43;;;;;;;1.91;nan;99620.03;4998675;28;20049;-84
2021/11/29 08:56:52;;;;;;;16.98;9.35;;;;;;;1.89;nan;99621.09;4996862;28;20034;-83
2021/11/29 08:59:19;;;;;;;15.13;8.95;;;;;;;1.87;nan;99633.44;4984937;28;20096;-84
2021/11/29 09:01:46;;;;;;;14.30;8.02;;;;;;;1.94;nan;99639.00;4985153;28;20940;-83
2021/11/29 09:04:13;;;;;;;10.40;6.50;;;;;;;1.91;nan;99633.06;4987128;28;20092;-84
2021/11/29 09:06:38;;;;;;;14.93;7.18;;;;;;;2.14;nan;99643.47;4998321;28;20034;-84
2021/11/29 09:09:07;;;;;;;14.90;8.80;;;;;;;2.43;nan;99638.59;4977894;28;20134;-84
2021/11/29 09:11:32;;;;;;;14.77;8.23;;;;;;;2.54;nan;99649.00;5012050;28;20117;-84
2021/11/29 09:13:58;;;;;;;16.85;8.10;;;;;;;2.72;nan;99656.34;4999026;28;20054;-85
2021/11/29 09:16:25;;;;;;;14.90;8.38;;;;;;;2.76;nan;99661.19;4983456;28;20045;-84
2021/11/29 09:18:50;;;;;;;13.35;7.93;;;;;;;2.74;nan;99647.44;4990249;28;20039;-84
2021/11/29 09:21:18;;;;;;;11.60;7.15;;;;;;;2.61;nan;99664.19;5008266;28;20047;-84
2021/11/29 09:23:44;;;;;;;13.02;7.35;;;;;;;2.75;nan;99671.75;5018378;28;20038;-84
2021/11/29 09:26:11;;;;;;;11.35;6.20;;;;;;;2.72;nan;99677.22;4984545;28;20032;-84
2021/11/29 09:28:37;;;;;;;14.43;6.65;;;;;;;2.82;nan;99677.31;4988596;28;20042;-84
2021/11/29 09:31:03;;;;;;;13.90;7.22;;;;;;;2.86;nan;99679.56;4982064;28;20057;-84
2021/11/29 09:33:28;;;;;;;9.80;5.65;;;;;;;2.91;nan;99685.22;4994825;28;20034;-84
2021/11/29 09:35:53;;;;;;;12.60;6.28;;;;;;;2.96;nan;99692.69;4977892;28;20053;-84
2021/11/29 09:38:19;;;;;;;9.07;5.85;;;;;;;2.86;nan;99689.16;4977572;28;20038;-84
2021/11/29 09:40:47;;;;;;;12.93;5.95;;;;;;;2.97;nan;99695.16;4979641;28;20034;-84
2021/11/29 09:43:17;;;;;;;8.05;5.00;;;;;;;3.05;nan;99693.72;5009682;28;20365;-84
2021/11/29 09:45:46;;;;;;;8.75;5.15;;;;;;;2.93;nan;99690.31;5000788;28;20037;-84
2021/11/29 09:48:12;;;;;;;11.45;5.57;;;;;;;3.03;nan;99698.22;4993864;28;20697;-84
2021/11/29 09:50:41;;;;;;;8.65;5.30;;;;;;;3.01;nan;99690.53;5017835;28;20034;-84
2021/11/29 09:53:08;;;;;;;10.75;5.25;;;;;;;3.19;nan;99696.88;5002040;28;20038;-84
2021/11/29 09:55:34;;;;;;;8.32;4.97;;;;;;;3.30;nan;99696.00;4993344;28;20038;-84
2021/11/29 09:58:00;;;;;;;12.23;5.03;;;;;;;3.42;nan;99698.56;4979520;28;20061;-84
2021/11/29 10:00:42;;;;;;;10.27;4.72;;;;;;;3.32;nan;99701.94;5001475;28;20641;-84
2021/11/29 10:03:08;;;;;;;8.65;5.22;;;;;;;3.31;nan;99695.06;5014108;28;20092;-85
2021/11/29 10:05:36;;;;;;;9.90;5.57;;;;;;;3.25;nan;99700.78;4992485;28;20026;-84
2021/11/29 10:08:39;;;;;;;11.25;5.85;;;;;;;3.27;nan;99704.09;4994149;28;20046;-85
2021/11/29 10:11:12;;;;;;;8.60;5.15;;;;;;;3.16;nan;99704.97;4980015;28;20043;-85
2021/11/29 10:13:51;;;;;;;10.27;5.40;;;;;;;3.17;nan;99701.41;4996638;28;20046;-84
2021/11/29 10:16:36;;;;;;;9.02;5.47;;;;;;;3.06;nan;99706.66;5003232;28;20109;-84
2021/11/29 10:19:04;;;;;;;8.85;5.00;;;;;;;2.93;nan;99711.19;5009996;28;20039;-85
2021/11/29 10:21:29;;;;;;;9.20;5.22;;;;;;;2.90;nan;99706.22;4981163;28;20042;-85
2021/11/29 10:23:58;;;;;;;8.57;5.60;;;;;;;2.89;nan;99713.25;4989043;28;20066;-84
2021/11/29 10:26:30;;;;;;;8.98;5.22;;;;;;;2.81;nan;99722.63;5017205;28;20035;-85
2021/11/29 10:29:00;;;;;;;10.88;5.20;;;;;;;2.88;nan;99718.56;5006178;28;20050;-84
2021/11/29 10:31:57;;;;;;;10.82;5.47;;;;;;;2.84;nan;99723.22;5010217;28;20092;-84
2021/11/29 10:34:29;;;;;;;9.05;5.22;;;;;;;2.89;nan;99722.88;4969925;28;20540;-84
2021/11/29 10:37:09;;;;;;;8.13;4.80;;;;;;;2.97;nan;99723.88;4996091;28;20093;-84
2021/11/29 10:39:50;;;;;;;11.50;5.18;;;;;;;2.95;nan;99723.19;4981243;28;20034;-84
2021/11/29 10:42:16;;;;;;;9.45;5.20;;;;;;;3.10;nan;99725.50;5007463;28;20041;-85
2021/11/29 10:44:45;;;;;;;9.20;5.13;;;;;;;3.19;nan;99728.25;5012910;28;20046;-84
2021/11/29 10:47:13;;;;;;;7.40;4.75;;;;;;;3.31;nan;99729.03;5012046;28;20049;-85
2021/11/29 10:49:41;;;;;;;9.18;5.25;;;;;;;3.27;nan;99734.63;5010336;28;20043;-85
2021/11/29 10:52:09;;;;;;;8.25;5.05;;;;;;;3.36;nan;99726.88;5006759;28;20033;-84
2021/11/29 10:54:37;;;;;;;8.32;4.75;;;;;;;3.36;nan;99734.72;4993281;28;20056;-85
2021/11/29 10:57:04;;;;;;;9.93;5.30;;;;;;;3.42;nan;99730.75;5022325;28;20070;-85
2021/11/29 10:59:34;;;;;;;12.50;5.72;;;;;;;3.31;nan;99725.56;5011221;28;20042;-84
2021/11/29 11:02:03;;;;;;;8.55;5.15;;;;;;;3.26;nan;99738.19;5021896;28;20034;-85
2021/11/29 11:04:32;;;;;;;10.70;5.40;;;;;;;3.37;nan;99738.97;4981725;28;20033;-85
2021/11/29 11:06:59;;;;;;;9.95;5.25;;;;;;;3.18;nan;99737.00;5009177;28;20034;-86
2021/11/29 11:09:30;;;;;;;8.48;5.38;;;;;;;3.27;nan;99737.25;4999773;28;20049;-84
2021/11/29 11:11:58;;;;;;;8.98;5.30;;;;;;;3.15;nan;99742.50;4981781;28;20045;-84
2021/11/29 11:14:31;;;;;;;8.20;5.05;;;;;;;3.19;nan;99738.69;5004799;28;20042;-84
2021/11/29 11:17:03;;;;;;;9.95;5.32;;;;;;;3.25;nan;99746.97;4978795;28;20381;-84
2021/11/29 11:19:36;;;;;;;9.25;5.25;;;;;;;3.22;nan;99749.81;5002240;28;20031;-86
2021/11/29 11:22:25;;;;;;;9.18;5.50;;;;;;;3.24;nan;99751.34;5005250;28;20077;-85
2021/11/29 11:24:58;;;;;;;10.55;6.13;;;;;;;3.22;nan;99753.28;4981782;28;20031;-84
2021/11/29 11:27:26;;;;;;;8.98;5.72;;;;;;;3.09;nan;99750.81;5001720;28;20038;-85
2021/11/29 11:29:57;;;;;;;8.93;5.95;;;;;;;3.11;nan;99756.75;5007481;28;20406;-85
2021/11/29 11:32:24;;;;;;;;;;;;;;;3.19;nan;99753.50;4987557;28;20120;-85
2021/11/29 11:35:19;;;;;;;12.27;6.85;;;;;;;3.22;nan;99755.03;5007553;28;20607;-85
2021/11/29 11:37:53;;;;;;;11.57;5.93;;;;;;;3.23;nan;99759.34;4996629;28;20066;-85
2021/11/29 11:40:24;;;;;;;9.55;5.72;;;;;;;3.11;nan;99756.75;4985655;28;20507;-85
2021/11/29 11:42:51;;;;;;;;;;;;;;;2.96;nan;99763.22;5000377;28;20041;-85
2021/11/29 11:45:21;;;;;;;10.55;5.65;;;;;;;2.95;nan;99761.53;5002993;28;19925;-84